Jacksonville Intl Information

FAA: JAX - ICAO: KJAX

Jacksonville Intl (Airport) Location

State Florida
County Duval
City Jacksonville
Jacksonville Intl (Airport) is 9 miles north of Jacksonville, FL.
Latitude 30-29-38.5640N
Longitude 081-41-16.2480W
Elevation 29ft

Jacksonville Intl METARs

METAR KJAX 190056Z 00000KT 10SM FEW250 07/04 A3023 RMK AO2 SLP238 T00670039
Altimeter 30.23"
Temperature 6.7°C (44.1°F)
Wind 0° at 0KT
Clouds few at 25,000ft
Visibility 10.0mi
Time observed: 2022-01-19T00:56:00Z

Jacksonville Intl (Airport) Details

Status Operational
Activation November 1968
Ownership Public
Usage Public
Chart JACKSONVILLE
ATC on-site Yes
Beacon schedule sunset-sunrise
Beacon color clear green

Jacksonville Intl (Airport) Contacts

Owner JACKSONVILLE INTL AIRPORT
Owner address 14201 PECAN PARK ROAD, JACKSONVILLE, FL 32218
Owner phone 904-741-2000
Manager KEITH TREPANIER
Manager address MB10-513 1216 2ND ST SW, ROCHESTER, MN 55905
Manager phone (507) 255-6156

Jacksonville Intl Radio Frequencies

Jacksonville Intl (Airport) Radio Frequencies

UNICOM 122.95
Common traffic advisory frequency (CTAF) N/A